Coleman A. Young Municipal Airport
KDET : now visible

Airfield :











YOU CAN JOIN US ON...

 
LOGIN :

Register | Disclaimer

   EN    FR    IT 

 









Legend :    VFR   Marginal VFR   IFR   Intensive IFR   Very Intensive IFR
Visi :
Ceiling :
>= 8 km
>= 3000ft
5 to 8 km
1000 to 3000 ft
1500m to 5 km
500 to 1000 ft
800 to 1500m
200 to 500 ft
< 800m
< 200 ft
Symbols :   Thunderstorms  Fog  Heavy snow  Heavy precipitations  Wind > 20 kt






- Airport Elevation : 626 ft
- IATA code : DET


KDET - Coleman A. Young Municipal

CURRENT METAR :
  • 190853Z 26007KT 9SM OVC017 M01/M04 A3000 RMK AO2 SLP165 T10111044 53009

EXPIRED METARs :
  • 190753Z 26011KT 10SM OVC018 M01/M05 A2999 RMK AO2 SLP162 T10111050
  • 190717Z 24007KT 10SM BKN027 OVC035 M01/M05 A2998 RMK AO2 T10111050
  • 190653Z 26008KT 10SM OVC037 M01/M06 A2997 RMK AO2 SLP157 T10111056

TAF KDET
Valid from the 19 at 06:00 until the 20 at 06:00 UTC


190520Z 1906/2006 24010KT P6SM SCT014 BKN022 OVC045
TEMPO 1906/1909 OVC016
FM191600 25014G22KT P6SM SCT026 BKN040 OVC150
FM200200 24008KT 4SM -SHSN BKN030 OVC050
KZOB FIR / North America



MET'MAP, your aeronautical weather chart ! - Copyright ORBIFLY December 2007 - Disclaimer

ORBIFLY MET'MAP TEAM :

Programming & Development : Alexandra Zaïnal
Concept & original design : Baudouin d'Aumeries
Assistance for programming : Marc-Olivier Méhu
Technical & hardware support : Manuel Goepfert

Contact : metmap@orbifly.com




SOURCES & CREDITS :

   NOAA       Earth
Advisory